Time;durP1;ratioP1;P1;durP2;ratioP2;P2;SDS_P1;SDS_P2;PMS_P1;PMS_P2;Temp;Humidity;BMP_temperature;BMP_pressure;BME280_temperature;BME280_humidity;BME280_pressure;Samples;Min_cycle;Max_cycle;Signal;HPM_P1;HPM_P2
2023/10/08 00:00:46;;;;;;;7.63;4.80;;;;;18.50;101653.00;;;;5019689;28;20237;-73
2023/10/08 00:03:33;;;;;;;8.97;4.40;;;;;18.50;101652.00;;;;5018993;28;20241;-72
2023/10/08 00:06:20;;;;;;;10.83;5.10;;;;;18.40;101668.00;;;;5017769;28;20710;-71
2023/10/08 00:09:08;;;;;;;9.87;4.60;;;;;18.40;101663.00;;;;5020347;28;20236;-73
2023/10/08 00:11:55;;;;;;;6.90;4.27;;;;;18.40;101679.00;;;;5022205;28;20236;-71
2023/10/08 00:14:44;;;;;;;10.13;4.93;;;;;18.30;101665.00;;;;5017088;28;20284;-71
2023/10/08 00:17:32;;;;;;;11.20;4.47;;;;;18.30;101676.00;;;;5021679;28;20238;-74
2023/10/08 00:20:28;;;;;;;8.20;4.80;;;;;18.30;101689.00;;;;5020084;28;20292;-77
2023/10/08 00:23:17;;;;;;;9.83;4.57;;;;;18.20;101696.00;;;;5025278;28;20273;-72
2023/10/08 00:26:06;;;;;;;9.33;4.87;;;;;18.20;101699.00;;;;5024600;28;20229;-68
2023/10/08 00:28:52;;;;;;;9.33;5.10;;;;;18.20;101712.00;;;;5021396;28;20779;-71
2023/10/08 00:31:41;;;;;;;9.17;4.40;;;;;18.20;101714.00;;;;5026436;28;20241;-70
2023/10/08 00:34:29;;;;;;;10.80;5.00;;;;;18.20;101713.00;;;;5012855;28;20282;-72
2023/10/08 00:37:15;;;;;;;10.23;4.23;;;;;18.20;101720.00;;;;5020771;28;20291;-74
2023/10/08 00:40:04;;;;;;;8.50;4.40;;;;;18.20;101712.00;;;;5014444;28;20245;-74
2023/10/08 00:42:56;;;;;;;10.57;4.80;;;;;18.30;101705.00;;;;5013304;28;20606;-74
2023/10/08 00:45:45;;;;;;;6.80;4.33;;;;;18.20;101705.00;;;;5017598;28;20876;-75
2023/10/08 00:48:35;;;;;;;11.33;4.97;;;;;18.10;101694.00;;;;5015635;28;20297;-72
2023/10/08 00:51:31;;;;;;;9.40;4.53;;;;;18.10;101701.00;;;;5010001;28;20222;-72
2023/10/08 00:54:19;;;;;;;9.30;4.47;;;;;18.10;101698.00;;;;5008330;28;20337;-73
2023/10/08 00:57:05;;;;;;;10.00;4.57;;;;;18.10;101711.00;;;;5014798;28;20749;-71
2023/10/08 00:59:53;;;;;;;10.07;4.60;;;;;18.10;101719.00;;;;5017327;28;20233;-72
2023/10/08 01:02:45;;;;;;;8.00;4.43;;;;;18.10;101719.00;;;;5021951;28;20368;-72
2023/10/08 01:08:38;;;;;;;12.67;5.47;;;;;18.00;101723.00;;;;5026108;28;20588;-77
2023/10/08 01:11:33;;;;;;;12.43;4.83;;;;;18.00;101726.00;;;;5026680;28;20229;-73
2023/10/08 01:14:31;;;;;;;12.77;4.57;;;;;17.90;101730.00;;;;5027120;28;20217;-73
2023/10/08 01:17:19;;;;;;;9.43;4.50;;;;;17.80;101741.00;;;;5026415;28;20225;-71
2023/10/08 01:20:19;;;;;;;10.77;4.50;;;;;17.90;101738.00;;;;5024952;28;20225;-74
2023/10/08 01:23:13;;;;;;;10.43;4.60;;;;;17.90;101738.00;;;;5026233;28;20356;-75
2023/10/08 01:26:10;;;;;;;7.60;4.60;;;;;17.90;101735.00;;;;5024256;28;20240;-72
2023/10/08 01:28:57;;;;;;;12.03;4.80;;;;;17.90;101727.00;;;;5026134;28;20352;-75
2023/10/08 01:31:43;;;;;;;10.00;4.77;;;;;17.90;101732.00;;;;5020913;28;20233;-72
2023/10/08 01:34:35;;;;;;;9.43;4.83;;;;;17.90;101715.00;;;;5018879;28;20675;-74
2023/10/08 01:37:21;;;;;;;10.70;5.17;;;;;17.90;101731.00;;;;5027056;28;20238;-72
2023/10/08 01:40:11;;;;;;;10.83;4.40;;;;;17.90;101730.00;;;;5026990;28;20229;-72
2023/10/08 01:43:00;;;;;;;6.57;4.90;;;;;17.90;101732.00;;;;5022022;28;20721;-75
2023/10/08 01:45:48;;;;;;;9.03;4.77;;;;;17.90;101723.00;;;;5026177;28;20238;-72
2023/10/08 01:48:37;;;;;;;11.30;4.87;;;;;17.90;101713.00;;;;5022446;28;20245;-73
2023/10/08 01:51:35;;;;;;;9.77;4.83;;;;;17.90;101724.00;;;;5019570;28;20237;-80
2023/10/08 01:54:22;;;;;;;9.07;4.80;;;;;17.90;101714.00;;;;5026310;28;20599;-73
2023/10/08 01:57:14;;;;;;;10.03;4.47;;;;;17.80;101719.00;;;;5020841;28;20240;-71
2023/10/08 02:00:00;;;;;;;11.23;5.00;;;;;17.80;101738.00;;;;5021396;28;20226;-73
2023/10/08 02:02:47;;;;;;;8.50;4.80;;;;;17.80;101741.00;;;;5026042;28;20237;-71
2023/10/08 02:05:34;;;;;;;8.10;4.90;;;;;17.80;101719.00;;;;5020075;28;20249;-69
2023/10/08 02:08:21;;;;;;;6.90;4.07;;;;;17.80;101720.00;;;;5025905;28;20762;-74
2023/10/08 02:11:08;;;;;;;8.93;5.20;;;;;17.80;101701.00;;;;5015760;28;20281;-72
2023/10/08 02:13:56;;;;;;;11.67;5.30;;;;;17.90;101649.00;;;;5018855;28;20834;-73
2023/10/08 02:16:43;;;;;;;11.53;5.20;;;;;17.90;101689.00;;;;5018112;28;20281;-75
2023/10/08 02:19:29;;;;;;;10.57;5.43;;;;;17.90;101641.00;;;;5024306;28;21030;-72
2023/10/08 02:22:16;;;;;;;11.47;5.10;;;;;17.90;101656.00;;;;5022897;28;20307;-75
2023/10/08 02:25:03;;;;;;;11.10;5.20;;;;;17.90;101696.00;;;;5017127;28;20233;-72
2023/10/08 02:27:50;;;;;;;12.30;5.53;;;;;18.00;101716.00;;;;5024168;28;20230;-74
2023/10/08 02:30:38;;;;;;;11.70;4.80;;;;;17.90;101676.00;;;;5017111;28;20377;-72
2023/10/08 02:33:27;;;;;;;9.13;5.30;;;;;17.90;101712.00;;;;5021490;28;20325;-72
2023/10/08 02:36:13;;;;;;;10.93;5.17;;;;;17.90;101729.00;;;;5016595;28;20802;-71
2023/10/08 02:39:05;;;;;;;10.40;4.53;;;;;17.90;101744.00;;;;5025907;28;20300;-75
2023/10/08 02:41:56;;;;;;;9.60;5.20;;;;;17.90;101722.00;;;;5016218;28;20361;-73
2023/10/08 02:44:43;;;;;;;11.13;5.30;;;;;17.90;101721.00;;;;5021034;28;20221;-74
2023/10/08 02:47:31;;;;;;;12.30;5.23;;;;;17.80;101701.00;;;;5017869;28;20230;-74
2023/10/08 02:50:18;;;;;;;9.80;4.67;;;;;17.90;101736.00;;;;5024950;28;20224;-71
2023/10/08 02:53:11;;;;;;;9.40;5.00;;;;;17.80;101750.00;;;;5015613;28;20358;-73
2023/10/08 02:55:57;;;;;;;9.30;4.80;;;;;17.90;101761.00;;;;5023399;28;20225;-72
2023/10/08 02:58:44;;;;;;;10.97;5.07;;;;;17.90;101784.00;;;;5025341;28;20977;-69
2023/10/08 03:01:33;;;;;;;13.23;4.70;;;;;17.90;101783.00;;;;5021753;28;20237;-71
2023/10/08 03:04:22;;;;;;;11.00;4.80;;;;;17.90;101777.00;;;;5023904;28;20228;-75
2023/10/08 03:07:11;;;;;;;13.20;4.87;;;;;17.80;101767.00;;;;5022589;28;20228;-71
2023/10/08 03:10:05;;;;;;;13.37;4.70;;;;;17.80;101758.00;;;;5021463;28;20244;-72
2023/10/08 03:12:54;;;;;;;10.43;4.80;;;;;17.80;101767.00;;;;5013251;28;20277;-71
2023/10/08 03:15:46;;;;;;;11.40;4.90;;;;;17.80;101744.00;;;;5018662;28;20769;-72
2023/10/08 03:18:35;;;;;;;9.53;4.97;;;;;17.90;101781.00;;;;5016875;28;20230;-73
2023/10/08 03:21:44;;;;;;;9.23;5.17;;;;;17.80;101745.00;;;;5022249;28;20229;-71
2023/10/08 03:24:37;;;;;;;11.33;4.80;;;;;17.80;101751.00;;;;5019119;28;20962;-71
2023/10/08 03:27:26;;;;;;;12.60;5.10;;;;;17.80;101751.00;;;;5014259;28;20233;-71
2023/10/08 03:30:14;;;;;;;9.40;4.80;;;;;17.80;101746.00;;;;5020821;28;20319;-72
2023/10/08 03:33:04;;;;;;;14.20;5.20;;;;;17.80;101748.00;;;;5018399;28;20740;-68
2023/10/08 03:35:52;;;;;;;11.13;4.63;;;;;17.70;101736.00;;;;5010550;28;20229;-72
2023/10/08 03:38:50;;;;;;;8.57;4.90;;;;;17.70;101717.00;;;;5019102;28;20234;-71
2023/10/08 03:41:39;;;;;;;10.93;4.70;;;;;17.80;101711.00;;;;5013923;28;20253;-74
2023/10/08 03:44:29;;;;;;;11.03;5.50;;;;;17.70;101729.00;;;;5022471;28;20236;-72
2023/10/08 03:47:18;;;;;;;11.73;4.67;;;;;17.70;101722.00;;;;5020612;28;20238;-73
2023/10/08 03:50:07;;;;;;;12.37;5.17;;;;;17.70;101741.00;;;;5022522;28;20609;-70
2023/10/08 03:52:55;;;;;;;12.53;4.90;;;;;17.70;101748.00;;;;5015628;28;20308;-71
2023/10/08 03:55:42;;;;;;;13.67;4.33;;;;;17.70;101760.00;;;;5014393;28;20352;-75
2023/10/08 03:58:32;;;;;;;12.10;4.80;;;;;17.70;101757.00;;;;5024913;28;20236;-73
2023/10/08 04:01:19;;;;;;;9.07;4.20;;;;;17.60;101762.00;;;;5020723;28;20365;-71
2023/10/08 04:04:06;;;;;;;13.97;5.07;;;;;17.60;101762.00;;;;5018091;28;20333;-72
2023/10/08 04:06:55;;;;;;;10.10;4.70;;;;;17.50;101750.00;;;;5015752;28;20234;-72
2023/10/08 04:09:42;;;;;;;10.63;4.93;;;;;17.60;101760.00;;;;5016089;28;20365;-73
2023/10/08 04:12:29;;;;;;;10.83;5.87;;;;;17.50;101759.00;;;;5013898;28;20241;-73
2023/10/08 04:15:19;;;;;;;8.83;4.83;;;;;17.50;101750.00;;;;5021623;28;20324;-73
2023/10/08 04:18:05;;;;;;;9.27;4.57;;;;;17.50;101763.00;;;;5020990;28;20664;-69
2023/10/08 04:23:57;;;;;;;10.70;4.57;;;;;17.50;101778.00;;;;5017075;28;20348;-71
2023/10/08 04:26:44;;;;;;;11.50;4.77;;;;;17.50;101786.00;;;;5016750;28;20707;-73
2023/10/08 04:29:32;;;;;;;9.17;5.20;;;;;17.50;101766.00;;;;5018134;28;20230;-73
2023/10/08 04:32:24;;;;;;;11.97;5.47;;;;;17.50;101738.00;;;;5023403;28;20366;-71
2023/10/08 04:35:14;;;;;;;10.03;5.00;;;;;17.50;101776.00;;;;5017171;28;20249;-75
2023/10/08 04:38:02;;;;;;;11.13;5.37;;;;;17.50;101727.00;;;;5019317;28;20257;-73
2023/10/08 04:40:51;;;;;;;11.33;5.03;;;;;17.50;101751.00;;;;5013854;28;20225;-71
2023/10/08 04:43:42;;;;;;;11.27;5.00;;;;;17.40;101767.00;;;;5018256;28;20230;-73
2023/10/08 04:46:46;;;;;;;11.43;5.00;;;;;17.40;101780.00;;;;5014841;28;20608;-73
2023/10/08 04:49:34;;;;;;;11.07;5.67;;;;;17.40;101812.00;;;;5018418;28;20229;-72
2023/10/08 04:52:20;;;;;;;11.17;5.80;;;;;17.40;101837.00;;;;5015803;28;20300;-72
2023/10/08 04:55:15;;;;;;;14.93;5.30;;;;;17.40;101849.00;;;;5013761;28;20292;-70
2023/10/08 04:58:05;;;;;;;14.63;5.83;;;;;17.40;101835.00;;;;5013777;28;20385;-71
2023/10/08 05:00:59;;;;;;;11.53;5.70;;;;;17.40;101836.00;;;;5018459;28;20237;-75
2023/10/08 05:03:56;;;;;;;10.50;5.00;;;;;17.40;101841.00;;;;5024771;28;20326;-71
2023/10/08 05:07:00;;;;;;;10.37;5.13;;;;;17.30;101847.00;;;;5024891;28;20295;-73
2023/10/08 05:09:52;;;;;;;8.83;4.83;;;;;17.30;101841.00;;;;5013491;28;20316;-72
2023/10/08 05:12:46;;;;;;;10.67;5.03;;;;;17.40;101855.00;;;;5022772;28;21124;-73
2023/10/08 05:15:41;;;;;;;12.47;5.17;;;;;17.30;101838.00;;;;5014130;28;20238;-73
2023/10/08 05:18:53;;;;;;;7.73;5.43;;;;;17.40;101846.00;;;;5020704;28;20764;-72
2023/10/08 05:21:51;;;;;;;12.00;5.33;;;;;17.30;101847.00;;;;5025039;28;20245;-73
2023/10/08 05:24:38;;;;;;;14.13;5.50;;;;;17.30;101843.00;;;;5026058;28;20335;-75
2023/10/08 05:27:56;;;;;;;11.03;5.40;;;;;17.30;101827.00;;;;5024026;28;20233;-73
2023/10/08 05:30:53;;;;;;;6.23;4.40;;;;;17.30;101823.00;;;;5018802;28;20222;-71
2023/10/08 05:33:59;;;;;;;8.97;4.27;;;;;17.30;101820.00;;;;5021522;28;20226;-74
2023/10/08 05:36:50;;;;;;;5.73;3.77;;;;;17.10;101825.00;;;;5028531;28;20233;-73
2023/10/08 05:39:42;;;;;;;8.27;3.20;;;;;17.00;101845.00;;;;5024680;28;20308;-73
2023/10/08 05:42:31;;;;;;;6.93;3.23;;;;;17.00;101859.00;;;;5023977;28;20288;-71
2023/10/08 05:45:30;;;;;;;10.40;3.77;;;;;16.90;101861.00;;;;5021753;28;20252;-72
2023/10/08 05:48:27;;;;;;;6.13;3.23;;;;;16.90;101872.00;;;;5022383;28;20237;-69
2023/10/08 05:51:23;;;;;;;7.27;3.37;;;;;16.80;101859.00;;;;5024726;28;20225;-72
2023/10/08 05:54:24;;;;;;;4.27;3.47;;;;;16.70;101848.00;;;;5017514;28;20376;-71
2023/10/08 05:57:35;;;;;;;7.23;3.60;;;;;16.50;101864.00;;;;5017122;28;20249;-70
2023/10/08 06:00:46;;;;;;;8.67;3.43;;;;;16.50;101875.00;;;;5016050;28;20242;-71
2023/10/08 06:03:32;;;;;;;7.30;3.00;;;;;16.50;101888.00;;;;5019931;28;20399;-73
2023/10/08 06:06:37;;;;;;;8.17;2.50;;;;;16.40;101902.00;;;;5012288;28;20304;-69
2023/10/08 06:09:35;;;;;;;4.30;2.47;;;;;16.40;101903.00;;;;5012837;28;20360;-71
2023/10/08 06:12:30;;;;;;;6.20;2.80;;;;;16.30;101904.00;;;;5023563;28;21387;-71
2023/10/08 06:15:24;;;;;;;3.50;2.57;;;;;16.30;101903.00;;;;5021407;28;20245;-71
2023/10/08 06:18:11;;;;;;;5.77;2.90;;;;;16.30;101923.00;;;;5014828;28;20241;-70
2023/10/08 06:20:59;;;;;;;8.20;3.70;;;;;16.20;101929.00;;;;5009539;28;20820;-71
2023/10/08 06:23:46;;;;;;;7.67;3.80;;;;;16.20;101914.00;;;;5020973;28;20233;-71
2023/10/08 06:26:34;;;;;;;4.97;3.17;;;;;16.10;101929.00;;;;5022368;28;20854;-70
2023/10/08 06:29:27;;;;;;;8.00;3.60;;;;;16.10;101946.00;;;;5025519;28;20229;-71
2023/10/08 06:32:13;;;;;;;6.37;3.20;;;;;16.00;101981.00;;;;5022091;28;20237;-71
2023/10/08 06:35:02;;;;;;;12.53;3.60;;;;;15.90;101964.00;;;;5021472;28;20297;-72
2023/10/08 06:37:54;;;;;;;5.57;3.43;;;;;15.90;101949.00;;;;5018162;28;20292;-71
2023/10/08 06:40:44;;;;;;;5.63;3.30;;;;;15.90;101967.00;;;;5018810;28;20369;-71
2023/10/08 06:43:34;;;;;;;7.37;3.67;;;;;15.80;101959.00;;;;5015376;28;20221;-70
2023/10/08 06:46:22;;;;;;;7.37;3.53;;;;;15.60;101982.00;;;;5017339;28;20252;-71
2023/10/08 06:49:13;;;;;;;6.63;3.80;;;;;15.60;101988.00;;;;5015361;28;20227;-72
2023/10/08 06:52:04;;;;;;;4.90;3.47;;;;;15.60;101988.00;;;;5016025;28;20303;-72
2023/10/08 06:54:53;;;;;;;3.83;2.57;;;;;15.50;101988.00;;;;5018912;28;20754;-73
2023/10/08 06:57:39;;;;;;;2.63;2.10;;;;;15.40;101994.00;;;;5022805;28;20743;-72
2023/10/08 07:00:38;;;;;;;2.50;2.10;;;;;15.40;101994.00;;;;5013307;28;20348;-73
2023/10/08 07:03:25;;;;;;;3.00;1.87;;;;;15.40;102006.00;;;;5019541;28;20415;-72
2023/10/08 07:06:25;;;;;;;1.90;1.70;;;;;15.40;101996.00;;;;5010702;28;20385;-72
2023/10/08 07:09:22;;;;;;;1.60;1.47;;;;;15.40;101994.00;;;;5022430;28;20283;-73
2023/10/08 07:12:14;;;;;;;1.73;1.60;;;;;15.30;102011.00;;;;5021476;28;20238;-73
2023/10/08 07:15:01;;;;;;;1.80;1.60;;;;;15.40;102013.00;;;;5006538;28;20371;-73
2023/10/08 07:17:51;;;;;;;1.93;1.67;;;;;15.40;101995.00;;;;5020953;28;20237;-71
2023/10/08 07:20:39;;;;;;;3.23;1.97;;;;;15.30;101999.00;;;;5015478;28;20240;-71
2023/10/08 07:23:27;;;;;;;1.70;1.50;;;;;15.40;102013.00;;;;5013172;28;20237;-72
2023/10/08 07:26:17;;;;;;;1.77;1.43;;;;;15.30;102000.00;;;;5012921;28;20234;-70
2023/10/08 07:29:07;;;;;;;2.07;1.87;;;;;15.30;102009.00;;;;5013625;28;20761;-72
2023/10/08 07:31:54;;;;;;;4.07;2.37;;;;;15.40;102000.00;;;;5013438;28;20241;-72
2023/10/08 07:34:44;;;;;;;2.50;2.10;;;;;15.40;102004.00;;;;5013651;28;20242;-70
2023/10/08 07:37:32;;;;;;;1.70;1.57;;;;;15.40;102007.00;;;;5020902;28;20238;-71
2023/10/08 07:40:20;;;;;;;2.90;2.30;;;;;15.30;102010.00;;;;5018851;28;20308;-69
2023/10/08 07:43:08;;;;;;;2.37;2.00;;;;;15.30;102011.00;;;;5018483;28;20240;-72
2023/10/08 07:45:55;;;;;;;2.53;2.03;;;;;15.30;102011.00;;;;5020808;28;20734;-72
2023/10/08 07:48:42;;;;;;;4.03;2.00;;;;;15.40;102011.00;;;;5018833;28;20249;-72
2023/10/08 07:51:30;;;;;;;1.70;1.60;;;;;15.30;102009.00;;;;5020111;28;20227;-70
2023/10/08 07:54:19;;;;;;;2.13;1.60;;;;;15.20;102015.00;;;;5014914;28;20235;-71
2023/10/08 07:57:12;;;;;;;1.90;1.57;;;;;15.20;102016.00;;;;5020007;28;20323;-71
2023/10/08 08:00:17;;;;;;;1.93;1.63;;;;;15.20;102035.00;;;;5018375;28;20718;-71
2023/10/08 08:03:05;;;;;;;1.40;1.30;;;;;15.30;102050.00;;;;5013044;28;20238;-72
2023/10/08 08:05:53;;;;;;;1.50;1.40;;;;;15.20;102053.00;;;;5013943;28;20723;-73
2023/10/08 08:08:41;;;;;;;1.27;1.17;;;;;15.30;102052.00;;;;5014614;28;20601;-71
2023/10/08 08:11:27;;;;;;;1.63;1.53;;;;;15.20;102054.00;;;;5009121;28;20237;-72
2023/10/08 08:14:16;;;;;;;1.17;1.10;;;;;15.20;102060.00;;;;5018874;28;20248;-74
2023/10/08 08:17:13;;;;;;;1.20;1.10;;;;;15.30;102060.00;;;;5019678;28;20778;-74
2023/10/08 08:20:06;;;;;;;2.37;1.00;;;;;15.30;102055.00;;;;5022487;28;20816;-71
2023/10/08 08:22:54;;;;;;;2.20;1.40;;;;;15.30;102057.00;;;;5019008;28;20221;-72
2023/10/08 08:26:06;;;;;;;4.47;1.93;;;;;15.40;102060.00;;;;5017776;28;20238;-75
2023/10/08 08:28:54;;;;;;;1.80;1.70;;;;;15.40;102052.00;;;;5009562;28;20287;-74
2023/10/08 08:31:46;;;;;;;3.27;2.13;;;;;15.30;102059.00;;;;5019723;28;20241;-72
2023/10/08 08:34:32;;;;;;;1.73;1.63;;;;;15.20;102056.00;;;;5021705;28;20237;-73
2023/10/08 08:37:19;;;;;;;1.77;1.40;;;;;15.20;102068.00;;;;5016335;28;20238;-70
2023/10/08 08:40:08;;;;;;;4.40;1.20;;;;;15.30;102076.00;;;;5025413;28;20241;-71
2023/10/08 08:42:58;;;;;;;1.27;1.17;;;;;15.00;102075.00;;;;5013848;28;20233;-72
2023/10/08 08:45:49;;;;;;;1.57;1.37;;;;;15.10;102074.00;;;;5020962;28;20765;-72
2023/10/08 08:48:38;;;;;;;1.40;1.30;;;;;14.80;102079.00;;;;5019178;28;20248;-72
2023/10/08 08:51:25;;;;;;;2.80;1.20;;;;;14.80;102075.00;;;;5021941;28;20225;-73
2023/10/08 08:54:11;;;;;;;1.20;1.10;;;;;14.70;102086.00;;;;5012572;28;20959;-71
2023/10/08 08:57:02;;;;;;;1.30;1.20;;;;;14.80;102118.00;;;;5019857;28;20226;-73
2023/10/08 08:59:53;;;;;;;2.03;1.40;;;;;14.70;102112.00;;;;5018315;28;20615;-73
2023/10/08 09:02:41;;;;;;;2.63;1.90;;;;;14.90;102130.00;;;;5012840;28;20238;-72
2023/10/08 09:05:34;;;;;;;2.30;1.60;;;;;14.80;102122.00;;;;5023473;28;20321;-72
2023/10/08 09:08:24;;;;;;;1.53;1.37;;;;;14.70;102129.00;;;;5020923;28;20236;-71
2023/10/08 09:11:15;;;;;;;1.97;1.60;;;;;14.60;102133.00;;;;5012393;28;20738;-72
2023/10/08 09:14:03;;;;;;;3.30;2.27;;;;;14.80;102144.00;;;;5010552;28;20234;-72
2023/10/08 09:16:50;;;;;;;3.40;1.50;;;;;14.60;102131.00;;;;5017570;28;20763;-72
2023/10/08 09:19:38;;;;;;;1.93;1.20;;;;;14.60;102138.00;;;;5022952;28;20264;-72
2023/10/08 09:22:25;;;;;;;1.60;1.20;;;;;14.50;102133.00;;;;5018705;28;20259;-72
2023/10/08 09:25:14;;;;;;;4.63;1.60;;;;;14.50;102147.00;;;;5018976;28;20226;-72
2023/10/08 09:28:00;;;;;;;6.60;2.20;;;;;14.80;102146.00;;;;5015540;28;20321;-72
2023/10/08 09:30:48;;;;;;;3.83;1.70;;;;;14.70;102141.00;;;;5011033;28;20245;-71
2023/10/08 09:33:37;;;;;;;5.17;1.40;;;;;14.80;102146.00;;;;5005892;28;20309;-73
2023/10/08 09:36:31;;;;;;;7.30;2.13;;;;;14.80;102139.00;;;;5010227;28;20222;-71
2023/10/08 09:39:23;;;;;;;2.93;1.50;;;;;14.80;102121.00;;;;5011566;28;20738;-71
2023/10/08 09:42:12;;;;;;;11.40;1.70;;;;;15.10;102119.00;;;;5019190;28;20243;-71
2023/10/08 09:44:58;;;;;;;5.03;1.97;;;;;15.10;102110.00;;;;5014434;28;20236;-70
2023/10/08 09:47:54;;;;;;;3.87;1.40;;;;;15.30;102097.00;;;;5019880;28;20240;-70
2023/10/08 09:50:44;;;;;;;4.47;1.90;;;;;15.40;102106.00;;;;5014218;28;20233;-71
2023/10/08 09:53:41;;;;;;;4.87;1.90;;;;;15.40;102109.00;;;;5020930;28;20741;-71
2023/10/08 09:56:30;;;;;;;8.70;1.93;;;;;15.40;102113.00;;;;5012095;28;20250;-70
2023/10/08 09:59:19;;;;;;;9.93;2.00;;;;;15.40;102112.00;;;;5016808;28;20310;-72
2023/10/08 10:02:09;;;;;;;7.07;1.83;;;;;15.50;102113.00;;;;5018979;28;20364;-69
2023/10/08 10:04:56;;;;;;;3.87;1.50;;;;;15.60;102120.00;;;;5018171;28;20241;-71
2023/10/08 10:07:44;;;;;;;4.30;1.50;;;;;15.60;102131.00;;;;5022781;28;20742;-72
2023/10/08 10:10:31;;;;;;;3.97;1.90;;;;;15.60;102129.00;;;;5015236;28;20234;-74
2023/10/08 10:13:18;;;;;;;6.17;1.80;;;;;15.60;102129.00;;;;5019206;28;20264;-74
2023/10/08 10:16:07;;;;;;;5.93;1.40;;;;;15.70;102129.00;;;;5018635;28;20281;-72
2023/10/08 10:18:58;;;;;;;5.97;1.60;;;;;15.70;102129.00;;;;5022644;28;20291;-71
2023/10/08 10:21:47;;;;;;;5.83;1.87;;;;;15.70;102130.00;;;;5024993;28;20240;-72
2023/10/08 10:24:37;;;;;;;4.27;1.70;;;;;15.80;102139.00;;;;5021458;28;20234;-72
2023/10/08 10:27:25;;;;;;;4.10;1.70;;;;;15.70;102134.00;;;;5020190;28;20268;-68
2023/10/08 10:30:16;;;;;;;5.50;1.80;;;;;15.70;102134.00;;;;5020452;28;20236;-72
2023/10/08 10:33:05;;;;;;;4.70;2.53;;;;;15.80;102121.00;;;;5010763;28;20238;-73
2023/10/08 10:35:52;;;;;;;7.50;2.20;;;;;15.80;102138.00;;;;5017217;28;20756;-72
2023/10/08 10:38:42;;;;;;;5.73;1.97;;;;;15.70;102133.00;;;;5021006;28;20296;-72
2023/10/08 10:41:29;;;;;;;3.97;1.90;;;;;15.90;102139.00;;;;5019083;28;20261;-71
2023/10/08 10:44:16;;;;;;;6.77;2.10;;;;;16.20;102139.00;;;;5022193;28;20959;-73
2023/10/08 10:50:31;;;;;;;4.50;2.20;;;;;16.40;102131.00;;;;5019938;28;20847;-70
2023/10/08 10:53:19;;;;;;;8.33;2.60;;;;;16.80;102130.00;;;;5009466;28;20715;-71
2023/10/08 10:56:09;;;;;;;5.63;2.70;;;;;16.90;102128.00;;;;5017820;28;20695;-74
2023/10/08 10:59:06;;;;;;;4.90;3.00;;;;;16.70;102122.00;;;;5021098;28;20229;-76
2023/10/08 11:01:52;;;;;;;4.83;2.37;;;;;16.80;102122.00;;;;5012069;28;20262;-73
2023/10/08 11:04:47;;;;;;;5.00;2.80;;;;;16.70;102121.00;;;;5015811;28;20316;-73
2023/10/08 11:07:34;;;;;;;5.43;3.23;;;;;16.70;102120.00;;;;5018984;28;20233;-71
2023/10/08 11:10:24;;;;;;;5.80;3.30;;;;;16.50;102132.00;;;;5017069;28;20271;-71
2023/10/08 11:13:14;;;;;;;5.87;3.27;;;;;16.40;102135.00;;;;5013817;28;20229;-71
2023/10/08 11:16:05;;;;;;;5.87;2.60;;;;;16.40;102132.00;;;;5022405;28;20246;-71
2023/10/08 11:18:57;;;;;;;7.50;2.77;;;;;16.40;102138.00;;;;5021337;28;20241;-73
2023/10/08 11:21:51;;;;;;;5.17;2.63;;;;;16.20;102136.00;;;;5020984;28;20713;-71
2023/10/08 11:24:42;;;;;;;6.07;2.70;;;;;16.30;102130.00;;;;5020035;28;20891;-72
2023/10/08 11:27:29;;;;;;;4.33;2.30;;;;;16.40;102118.00;;;;5017966;28;20233;-71
2023/10/08 11:30:17;;;;;;;5.00;2.50;;;;;16.40;102126.00;;;;5023093;28;20300;-71
2023/10/08 11:33:06;;;;;;;7.47;2.70;;;;;16.60;102122.00;;;;5022520;28;20224;-71
2023/10/08 11:35:58;;;;;;;5.93;2.40;;;;;16.70;102127.00;;;;5023590;28;20388;-72
2023/10/08 11:38:47;;;;;;;6.20;2.53;;;;;16.70;102121.00;;;;5017328;28;20230;-70
2023/10/08 11:41:49;;;;;;;4.03;1.93;;;;;16.90;102103.00;;;;5014699;28;20304;-72
2023/10/08 11:44:36;;;;;;;2.83;1.50;;;;;16.80;102107.00;;;;5022392;28;20903;-69
2023/10/08 11:47:25;;;;;;;2.63;1.40;;;;;16.90;102095.00;;;;5018481;28;20237;-72
2023/10/08 11:50:17;;;;;;;3.40;1.53;;;;;17.10;102103.00;;;;5018627;28;20729;-69
2023/10/08 11:53:05;;;;;;;2.60;1.37;;;;;17.30;102100.00;;;;5017184;28;20233;-69
2023/10/08 11:55:56;;;;;;;5.33;1.40;;;;;17.50;102102.00;;;;5015913;28;20226;-70
2023/10/08 11:58:44;;;;;;;3.07;1.40;;;;;17.50;102100.00;;;;5016329;28;20241;-74
2023/10/08 12:01:35;;;;;;;3.60;1.30;;;;;17.30;102101.00;;;;5017563;28;20684;-70
2023/10/08 12:04:22;;;;;;;4.00;1.33;;;;;17.30;102097.00;;;;5016529;28;20271;-69
2023/10/08 12:07:10;;;;;;;4.07;1.57;;;;;17.50;102091.00;;;;5020186;28;20586;-70
2023/10/08 12:09:56;;;;;;;3.63;1.20;;;;;17.60;102082.00;;;;5015841;28;20808;-71
2023/10/08 12:12:45;;;;;;;2.70;1.20;;;;;17.80;102075.00;;;;5020563;28;20229;-71
2023/10/08 12:15:38;;;;;;;5.27;1.33;;;;;17.80;102076.00;;;;5028312;28;20233;-72
2023/10/08 12:18:25;;;;;;;3.70;1.60;;;;;17.80;102071.00;;;;5015398;28;20761;-71
2023/10/08 12:21:14;;;;;;;4.80;1.30;;;;;17.80;102075.00;;;;5018663;28;20236;-74
2023/10/08 12:24:05;;;;;;;4.07;1.47;;;;;17.80;102076.00;;;;5027803;28;20303;-71
2023/10/08 12:26:51;;;;;;;3.73;1.27;;;;;18.00;102075.00;;;;5015498;28;20609;-70
2023/10/08 12:29:38;;;;;;;6.07;0.97;;;;;18.00;102056.00;;;;5024502;28;20685;-72
2023/10/08 12:32:26;;;;;;;1.27;1.03;;;;;17.80;102060.00;;;;5021381;28;20241;-72
2023/10/08 12:35:13;;;;;;;6.47;1.43;;;;;17.90;102064.00;;;;5024556;28;20304;-72
2023/10/08 12:38:00;;;;;;;4.33;1.17;;;;;17.80;102069.00;;;;5025651;28;20229;-71
2023/10/08 12:40:53;;;;;;;2.73;1.10;;;;;17.70;102057.00;;;;5022157;28;21000;-73
2023/10/08 12:43:42;;;;;;;2.30;1.20;;;;;17.80;102052.00;;;;5020635;28;20284;-71
2023/10/08 12:46:31;;;;;;;1.77;1.10;;;;;17.90;102055.00;;;;5018993;28;20304;-71
2023/10/08 12:49:20;;;;;;;2.87;1.20;;;;;17.90;102051.00;;;;5025399;28;20593;-71
2023/10/08 12:52:08;;;;;;;3.13;1.17;;;;;17.80;102054.00;;;;5026407;28;20245;-74
2023/10/08 12:55:03;;;;;;;1.57;0.90;;;;;17.80;102046.00;;;;5024648;28;20736;-71
2023/10/08 12:57:55;;;;;;;2.67;1.00;;;;;17.70;102052.00;;;;5026802;28;20328;-71
2023/10/08 13:00:41;;;;;;;3.13;1.03;;;;;17.70;102042.00;;;;5024862;28;20238;-74
2023/10/08 13:03:31;;;;;;;1.50;1.20;;;;;17.70;102037.00;;;;5018313;28;20236;-72
2023/10/08 13:06:22;;;;;;;5.10;1.57;;;;;17.70;102022.00;;;;5022135;28;20234;-74
2023/10/08 13:09:12;;;;;;;7.33;2.30;;;;;17.60;102015.00;;;;5025386;28;20355;-72
2023/10/08 13:11:59;;;;;;;5.37;2.57;;;;;17.70;102007.00;;;;5025944;28;20388;-74
2023/10/08 13:14:47;;;;;;;3.27;1.60;;;;;17.80;102000.00;;;;5024345;28;20618;-71
2023/10/08 13:17:34;;;;;;;3.53;1.47;;;;;17.80;101995.00;;;;5017636;28;20238;-69
2023/10/08 13:20:21;;;;;;;1.47;1.10;;;;;17.80;102003.00;;;;5023365;28;20225;-71
2023/10/08 13:23:08;;;;;;;4.47;1.60;;;;;17.90;101993.00;;;;5024416;28;20613;-71
2023/10/08 13:25:55;;;;;;;4.83;2.27;;;;;17.90;101995.00;;;;5025096;28;20226;-71
2023/10/08 13:28:41;;;;;;;4.27;1.77;;;;;17.90;101993.00;;;;5025374;28;20325;-73
2023/10/08 13:31:29;;;;;;;3.40;1.30;;;;;17.70;102007.00;;;;5018419;28;20306;-72
2023/10/08 13:34:16;;;;;;;3.70;1.10;;;;;17.60;102006.00;;;;5025819;28;20220;-70
2023/10/08 13:37:03;;;;;;;5.00;1.17;;;;;17.50;102006.00;;;;5024312;28;20272;-73
2023/10/08 13:39:49;;;;;;;4.03;1.07;;;;;17.50;101991.00;;;;5025844;28;20606;-71
2023/10/08 13:42:35;;;;;;;3.33;1.30;;;;;17.40;101999.00;;;;5023205;28;20234;-73
2023/10/08 13:45:26;;;;;;;3.90;1.00;;;;;17.30;101982.00;;;;5025458;28;20760;-71
2023/10/08 13:48:14;;;;;;;3.07;0.90;;;;;17.40;101979.00;;;;5018596;28;20622;-71
2023/10/08 13:51:03;;;;;;;2.47;0.83;;;;;17.50;101995.00;;;;5024361;28;20318;-70
2023/10/08 13:53:52;;;;;;;1.37;0.90;;;;;17.50;101994.00;;;;5024874;28;20233;-72
2023/10/08 13:56:42;;;;;;;2.57;1.00;;;;;17.60;101985.00;;;;5015231;28;20233;-71
2023/10/08 13:59:31;;;;;;;2.37;1.00;;;;;17.60;101978.00;;;;5028166;28;20720;-71
2023/10/08 14:02:21;;;;;;;2.27;1.03;;;;;17.60;101988.00;;;;5024019;28;20336;-72
2023/10/08 14:05:10;;;;;;;2.40;1.30;;;;;17.70;101993.00;;;;5022045;28;20342;-72
2023/10/08 14:07:57;;;;;;;2.07;1.10;;;;;17.60;102006.00;;;;5025435;28;20746;-73